Time;durP1;ratioP1;P1;durP2;ratioP2;P2;SDS_P1;SDS_P2;PMS_P1;PMS_P2;Temp;Humidity;BMP_temperature;BMP_pressure;BME280_temperature;BME280_humidity;BME280_pressure;Samples;Min_cycle;Max_cycle;Signal;HPM_P1;HPM_P2
2021/09/11 00:01:57;;;;;;;;;7.00;6.00;;;;;19.30;69.08;101020.41;5097342;27;45298;-59
2021/09/11 00:04:22;;;;;;;;;8.00;6.00;;;;;19.26;69.36;101027.09;5097286;27;45374;-61
2021/09/11 00:06:47;;;;;;;;;4.50;4.50;;;;;19.21;69.53;101029.47;5096186;27;66662;-61
2021/09/11 00:09:13;;;;;;;;;5.50;5.50;;;;;19.19;69.53;101026.16;5096924;27;45855;-61
2021/09/11 00:11:38;;;;;;;;;7.00;6.50;;;;;19.15;69.57;101031.03;5096421;27;61665;-60
2021/09/11 00:14:04;;;;;;;;;7.50;4.75;;;;;19.13;69.53;101025.88;5096387;27;61348;-61
2021/09/11 00:16:29;;;;;;;;;5.50;5.50;;;;;19.12;69.27;101034.06;5096680;27;53956;-59
2021/09/11 00:18:54;;;;;;;;;6.25;6.25;;;;;19.08;69.90;101032.78;5096959;27;45289;-60
2021/09/11 00:21:20;;;;;;;;;6.75;6.00;;;;;19.05;69.89;101036.63;5096643;27;45315;-60
2021/09/11 00:23:46;;;;;;;;;5.50;4.25;;;;;19.04;70.07;101040.31;5096342;27;59823;-61
2021/09/11 00:26:11;;;;;;;;;8.00;6.75;;;;;19.03;70.06;101035.16;5096342;27;45548;-59
2021/09/11 00:28:37;;;;;;;;;7.25;6.00;;;;;19.05;69.95;101033.97;5096460;27;53579;-60
2021/09/11 00:31:02;;;;;;;;;7.00;7.00;;;;;19.06;69.49;101032.97;5095943;27;64939;-60
2021/09/11 00:33:27;;;;;;;;;9.00;6.75;;;;;19.09;69.54;101031.75;5078102;27;45763;-60
2021/09/11 00:35:53;;;;;;;;;6.00;6.00;;;;;19.09;69.63;101032.56;5095961;27;61427;-60
2021/09/11 00:38:18;;;;;;;;;5.00;5.00;;;;;19.08;69.87;101030.09;5095660;27;75631;-60
2021/09/11 00:40:43;;;;;;;;;6.00;5.50;;;;;19.07;69.95;101023.97;5095634;27;73180;-60
2021/09/11 00:43:09;;;;;;;;;6.00;5.50;;;;;19.08;69.54;101033.59;5096748;27;45445;-60
2021/09/11 00:45:34;;;;;;;;;6.00;5.75;;;;;19.07;69.73;101021.31;5096478;27;48922;-59
2021/09/11 00:48:00;;;;;;;;;6.00;5.50;;;;;19.03;69.44;101022.69;5095413;27;72174;-59
2021/09/11 00:50:25;;;;;;;;;9.50;6.00;;;;;19.02;69.78;101026.34;5096469;27;45408;-60
2021/09/11 00:52:50;;;;;;;;;6.25;6.00;;;;;19.01;69.56;101022.03;5096774;27;45464;-60
2021/09/11 00:55:16;;;;;;;;;6.25;5.75;;;;;18.99;69.58;101026.69;5096554;27;45281;-59
2021/09/11 00:57:46;;;;;;;;;6.75;6.00;;;;;18.98;69.49;101020.53;5096485;27;45361;-60
2021/09/11 01:00:12;;;;;;;;;5.25;5.00;;;;;18.97;69.80;101023.38;5096602;27;45416;-60
2021/09/11 01:02:37;;;;;;;;;6.00;6.00;;;;;18.96;69.76;101027.06;5096438;27;45268;-59
2021/09/11 01:05:05;;;;;;;;;5.00;5.00;;;;;18.94;69.57;101027.19;5079542;27;45229;-59
2021/09/11 01:07:31;;;;;;;;;4.75;4.75;;;;;18.92;69.58;101039.03;5099746;27;46394;-60
2021/09/11 01:09:56;;;;;;;;;6.00;5.00;;;;;18.88;69.91;101040.41;5099699;27;45299;-60
2021/09/11 01:12:22;;;;;;;;;5.75;5.75;;;;;18.88;69.64;101040.41;5081458;27;45454;-60
2021/09/11 01:14:47;;;;;;;;;5.25;4.50;;;;;18.86;69.73;101037.91;5099054;27;64431;-60
2021/09/11 01:17:14;;;;;;;;;5.50;4.00;;;;;18.84;69.57;101042.56;5098941;27;68284;-60
2021/09/11 01:19:40;;;;;;;;;4.00;4.00;;;;;18.83;69.59;101041.75;5098918;27;45443;-60
2021/09/11 01:22:05;;;;;;;;;4.75;4.75;;;;;18.80;69.72;101039.47;5099545;27;45369;-59
2021/09/11 01:24:30;;;;;;;;;3.75;3.75;;;;;18.79;69.75;101037.81;5080683;27;59784;-61
2021/09/11 01:26:56;;;;;;;;;5.00;5.00;;;;;18.80;69.70;101046.63;5098437;27;75055;-60
2021/09/11 01:29:21;;;;;;;;;5.50;4.00;;;;;18.79;69.90;101045.78;5098743;27;65867;-59
2021/09/11 01:31:47;;;;;;;;;4.50;4.50;;;;;18.77;70.10;101044.31;5099634;27;45538;-60
2021/09/11 01:34:12;;;;;;;;;3.00;2.75;;;;;18.76;69.85;101048.00;5098632;27;66947;-60
2021/09/11 01:36:37;;;;;;;;;4.25;4.25;;;;;18.76;70.24;101043.47;5098660;27;65306;-60
2021/09/11 01:39:03;;;;;;;;;5.00;5.00;;;;;18.76;69.83;101048.81;5098573;27;69810;-60
2021/09/11 01:41:28;;;;;;;;;5.25;4.75;;;;;18.76;69.88;101040.81;5099003;27;48809;-59
2021/09/11 01:43:53;;;;;;;;;6.25;5.50;;;;;18.75;70.11;101046.34;5098643;27;60291;-61
2021/09/11 01:46:19;;;;;;;;;4.50;4.50;;;;;18.73;69.92;101043.84;5099140;27;46263;-60
2021/09/11 01:48:44;;;;;;;;;5.00;5.00;;;;;18.73;69.91;101045.69;5080125;27;68702;-61
2021/09/11 01:51:09;;;;;;;;;6.50;6.00;;;;;18.71;69.72;101053.00;5098484;27;61817;-59
2021/09/11 01:53:35;;;;;;;;;5.00;5.00;;;;;18.69;69.88;101051.34;5098559;27;61169;-60
2021/09/11 01:56:00;;;;;;;;;5.00;4.25;;;;;18.69;69.69;101053.19;5098232;27;71183;-60
2021/09/11 01:58:26;;;;;;;;;4.50;4.00;;;;;18.67;70.02;101050.72;5098275;27;64567;-59
2021/09/11 02:00:51;;;;;;;;;4.00;4.00;;;;;18.67;69.57;101047.19;5098263;27;69330;-60
2021/09/11 02:03:16;;;;;;;;;6.75;4.00;;;;;18.64;69.62;101045.72;5098691;27;53085;-60
2021/09/11 02:05:42;;;;;;;;;5.00;5.00;;;;;18.63;69.57;101040.56;5097828;27;75533;-60
2021/09/11 02:08:07;;;;;;;;;4.75;4.75;;;;;18.61;69.20;101037.25;5098762;27;50647;-60
2021/09/11 02:10:33;;;;;;;;;6.50;6.00;;;;;18.58;69.53;101045.59;5098953;27;45363;-60
2021/09/11 02:12:59;;;;;;;;;5.00;5.00;;;;;18.56;69.04;101047.59;5098169;27;45580;-60
2021/09/11 02:15:24;;;;;;;;;5.00;5.00;;;;;18.53;69.13;101054.13;5098747;27;45432;-61
2021/09/11 02:17:50;;;;;;;;;3.50;3.50;;;;;18.51;69.08;101049.00;5096739;27;71754;-59
2021/09/11 02:20:15;;;;;;;;;4.50;4.50;;;;;18.49;68.95;101048.34;5098245;27;55620;-61
2021/09/11 02:22:40;;;;;;;;;5.25;5.00;;;;;18.46;68.76;101048.69;5079606;27;63292;-60
2021/09/11 02:25:06;;;;;;;;;6.00;4.75;;;;;18.46;69.03;101048.69;5080333;27;46243;-60
2021/09/11 02:27:32;;;;;;;;;4.00;4.00;;;;;18.44;68.71;101048.03;5098628;27;45417;-61
2021/09/11 02:29:57;;;;;;;;;4.75;4.75;;;;;18.45;68.70;101046.19;5097782;27;62807;-60
2021/09/11 02:32:22;;;;;;;;;5.25;4.50;;;;;18.42;68.58;101049.19;5098065;27;55666;-60
2021/09/11 02:34:48;;;;;;;;;4.00;4.00;;;;;18.39;68.68;101050.38;5079493;27;62938;-60
2021/09/11 02:37:13;;;;;;;;;5.25;5.00;;;;;18.34;68.51;101047.41;5097641;27;68643;-60
2021/09/11 02:39:39;;;;;;;;;5.75;4.75;;;;;18.32;68.27;101052.09;5097787;27;61143;-60
2021/09/11 02:42:06;;;;;;;;;4.75;4.00;;;;;18.28;68.64;101048.13;5098390;27;45535;-60
2021/09/11 02:44:31;;;;;;;;;5.75;5.00;;;;;18.23;68.91;101044.16;5098411;27;45267;-60
2021/09/11 02:46:56;;;;;;;;;4.75;4.75;;;;;18.21;68.26;101040.81;5079818;27;47408;-61
2021/09/11 02:49:22;;;;;;;;;5.50;4.50;;;;;18.16;68.46;101051.16;5098345;27;45292;-60
2021/09/11 02:51:47;;;;;;;;;4.75;4.75;;;;;18.12;68.36;101047.19;5097859;27;54377;-59
2021/09/11 02:54:12;;;;;;;;;6.75;4.00;;;;;18.09;68.35;101043.06;5097194;27;70577;-60
2021/09/11 02:56:38;;;;;;;;;3.75;3.00;;;;;18.06;68.60;101039.91;5098120;27;45367;-60
2021/09/11 02:59:03;;;;;;;;;3.00;3.00;;;;;18.02;68.54;101036.75;5097502;27;63625;-60
2021/09/11 03:01:29;;;;;;;;;4.25;3.25;;;;;17.98;68.72;101031.94;5097393;27;62672;-60
2021/09/11 03:03:54;;;;;;;;;5.00;5.00;;;;;17.94;68.90;101039.44;5097378;27;65767;-60
2021/09/11 03:06:19;;;;;;;;;5.00;4.25;;;;;17.91;68.46;101034.44;5097011;27;70337;-60
2021/09/11 03:08:45;;;;;;;;;4.00;4.00;;;;;17.90;68.66;101038.94;5097632;27;53478;-59
2021/09/11 03:11:10;;;;;;;;;4.00;4.00;;;;;17.89;68.65;101047.09;5097998;27;45317;-60
2021/09/11 03:13:36;;;;;;;;;5.25;4.50;;;;;17.86;68.64;101044.78;5097807;27;45284;-60
2021/09/11 03:16:01;;;;;;;;;3.75;3.00;;;;;17.83;68.67;101048.63;5079586;27;45284;-60
2021/09/11 03:18:27;;;;;;;;;3.00;3.00;;;;;17.82;69.03;101046.09;5097990;27;45612;-60
2021/09/11 03:20:52;;;;;;;;;4.00;4.00;;;;;17.82;68.86;101046.09;5097770;27;45583;-60
2021/09/11 03:23:17;;;;;;;;;5.75;4.25;;;;;17.79;68.70;101040.13;5096891;27;62151;-60
2021/09/11 03:25:43;;;;;;;;;4.75;3.25;;;;;17.77;68.69;101043.97;5097823;27;45240;-60
2021/09/11 03:28:08;;;;;;;;;3.00;3.00;;;;;17.75;68.72;101046.78;5097669;27;45409;-60
2021/09/11 03:30:34;;;;;;;;;4.50;3.00;;;;;17.76;68.31;101042.31;5096719;27;67494;-60
2021/09/11 03:32:59;;;;;;;;;3.75;3.75;;;;;17.74;68.33;101044.31;5097666;27;46056;-60
2021/09/11 03:35:26;;;;;;;;;4.25;3.00;;;;;17.72;68.32;101041.00;5096719;27;64833;-59
2021/09/11 03:37:51;;;;;;;;;2.00;2.00;;;;;17.69;68.48;101044.84;5097748;27;45494;-59
2021/09/11 03:40:17;;;;;;;;;4.75;4.00;;;;;17.69;68.15;101041.34;5097742;27;45440;-59
2021/09/11 03:42:42;;;;;;;;;3.25;3.25;;;;;17.66;68.41;101037.22;5097521;27;45932;-59
2021/09/11 03:45:08;;;;;;;;;4.00;4.00;;;;;17.62;68.30;101035.88;5096987;27;60114;-60
2021/09/11 03:47:33;;;;;;;;;5.00;4.00;;;;;17.59;68.52;101031.72;5079141;27;45389;-60
2021/09/11 03:49:59;;;;;;;;;4.00;4.00;;;;;17.55;68.16;101027.75;5097294;27;45540;-60
2021/09/11 03:52:24;;;;;;;;;4.00;4.00;;;;;17.55;68.13;101035.72;5096571;27;64757;-58
2021/09/11 03:54:49;;;;;;;;;5.50;4.00;;;;;17.52;68.48;101038.72;5096299;27;72076;-59
2021/09/11 03:57:15;;;;;;;;;5.00;4.00;;;;;17.49;68.21;101039.06;5096925;27;49310;-61
2021/09/11 03:59:40;;;;;;;;;4.25;2.75;;;;;17.49;68.11;101052.34;5096381;27;70449;-59
2021/09/11 04:02:06;;;;;;;;;3.00;3.00;;;;;17.47;68.11;101057.03;5096318;27;63594;-59
2021/09/11 04:04:31;;;;;;;;;4.00;3.50;;;;;17.44;68.15;101054.69;5096229;27;66152;-60
2021/09/11 04:06:56;;;;;;;;;6.00;4.50;;;;;17.38;68.43;101056.19;5096453;27;64056;-60
2021/09/11 04:09:22;;;;;;;;;4.25;4.25;;;;;17.32;68.59;101052.38;5096429;27;61387;-60
2021/09/11 04:11:47;;;;;;;;;5.00;4.00;;;;;17.30;68.49;101059.69;5096804;27;45610;-60
2021/09/11 04:14:12;;;;;;;;;3.50;3.25;;;;;17.28;68.48;101067.00;5096125;27;65669;-59
2021/09/11 04:16:38;;;;;;;;;3.75;3.25;;;;;17.25;68.32;101055.84;5097114;27;45230;-61
2021/09/11 04:19:03;;;;;;;;;2.50;2.25;;;;;17.21;68.63;101060.69;5096171;27;66879;-60
2021/09/11 04:21:29;;;;;;;;;4.00;4.00;;;;;17.19;68.77;101057.38;5078313;27;46188;-59
2021/09/11 04:23:54;;;;;;;;;3.50;3.00;;;;;17.17;68.51;101051.41;5096108;27;65549;-60
2021/09/11 04:26:19;;;;;;;;;3.00;3.00;;;;;17.16;68.40;101057.69;5096217;27;62606;-59
2021/09/11 04:28:45;;;;;;;;;16.75;14.00;;;;;17.14;68.56;101065.00;5096113;27;63063;-59
2021/09/11 04:31:10;;;;;;;;;3.50;3.25;;;;;17.09;68.58;101059.34;5095700;27;75492;-59
2021/09/11 04:33:36;;;;;;;;;5.00;3.00;;;;;17.06;68.53;101064.00;5095865;27;70013;-59
2021/09/11 04:36:01;;;;;;;;;4.00;4.00;;;;;17.06;68.57;101060.53;5095878;27;67273;-60
2021/09/11 04:38:27;;;;;;;;;4.00;4.00;;;;;17.04;68.55;101055.38;5096052;27;64390;-60
2021/09/11 04:40:53;;;;;;;;;4.00;4.00;;;;;17.03;68.51;101068.81;5099276;27;46412;-60
2021/09/11 04:43:19;;;;;;;;;4.00;3.00;;;;;17.01;68.41;101070.81;5099331;27;65804;-59
2021/09/11 04:45:44;;;;;;;;;4.00;4.00;;;;;17.01;68.49;101057.53;5100624;27;45385;-58
2021/09/11 04:48:10;;;;;;;;;6.00;3.25;;;;;17.01;68.59;101060.19;5099434;27;67513;-59
2021/09/11 04:50:35;;;;;;;;;3.50;3.50;;;;;17.01;68.71;101061.00;5099864;27;49173;-59
2021/09/11 04:53:01;;;;;;;;;4.25;3.50;;;;;17.01;68.59;101061.00;5099358;27;63421;-60
2021/09/11 04:55:26;;;;;;;;;3.00;3.00;;;;;17.02;68.71;101061.84;5099611;27;57132;-60
2021/09/11 04:57:52;;;;;;;;;3.50;3.50;;;;;16.99;68.67;101065.66;5099482;27;58822;-60
2021/09/11 05:00:17;;;;;;;;;4.00;3.50;;;;;16.99;68.65;101065.66;5099061;27;70182;-60
2021/09/11 05:02:42;;;;;;;;;5.75;4.25;;;;;16.99;68.88;101067.50;5099880;27;45370;-59
2021/09/11 05:05:08;;;;;;;;;2.00;2.00;;;;;17.00;68.97;101071.81;5099055;27;66246;-60
2021/09/11 05:07:34;;;;;;;;;5.50;4.00;;;;;17.00;68.64;101066.50;5099917;27;45374;-60
2021/09/11 05:09:59;;;;;;;;;4.00;4.00;;;;;16.99;68.60;101067.50;5099797;27;46051;-59
2021/09/11 05:12:24;;;;;;;;;2.00;2.00;;;;;16.98;68.81;101071.16;5099178;27;60491;-59
2021/09/11 05:14:50;;;;;;;;;3.00;2.00;;;;;16.94;68.94;101072.44;5099224;27;66140;-59
2021/09/11 05:17:15;;;;;;;;;3.00;3.00;;;;;16.93;68.69;101079.59;5099194;27;60223;-59
2021/09/11 05:19:41;;;;;;;;;3.00;3.00;;;;;16.90;69.03;101079.91;5099630;27;45219;-60
2021/09/11 05:22:06;;;;;;;;;4.50;2.00;;;;;16.90;68.82;101078.06;5099388;27;45291;-59
2021/09/11 05:24:31;;;;;;;;;3.00;2.50;;;;;16.88;68.88;101077.41;5098716;27;64574;-59
2021/09/11 05:26:57;;;;;;;;;3.50;3.50;;;;;16.89;68.67;101083.56;5099514;27;45335;-59
2021/09/11 05:29:22;;;;;;;;;4.00;4.00;;;;;16.88;68.60;101084.56;5098564;27;46077;-59
2021/09/11 05:31:48;;;;;;;;;4.00;4.00;;;;;16.87;68.24;101081.06;5098301;27;68957;-60
2021/09/11 05:34:13;;;;;;;;;4.00;4.00;;;;;16.87;68.02;101085.53;5099067;27;53235;-60
2021/09/11 05:36:38;;;;;;;;;3.25;3.25;;;;;16.87;67.82;101085.53;5099312;27;45354;-59
2021/09/11 05:39:04;;;;;;;;;3.75;2.50;;;;;16.83;67.71;101086.88;5079946;27;69185;-60
2021/09/11 05:41:29;;;;;;;;;3.50;3.00;;;;;16.82;67.72;101082.56;5099146;27;45448;-60
2021/09/11 05:43:55;;;;;;;;;3.00;3.00;;;;;16.81;68.14;101089.66;5098516;27;62077;-59
2021/09/11 05:46:20;;;;;;;;;5.00;4.00;;;;;16.83;68.21;101092.19;5099256;27;45335;-59
2021/09/11 05:48:45;;;;;;;;;3.00;3.00;;;;;16.84;67.90;101091.19;5098826;27;57390;-60
2021/09/11 05:51:11;;;;;;;;;3.50;3.00;;;;;16.85;68.19;101093.66;5096739;27;65952;-59
2021/09/11 05:53:36;;;;;;;;;3.25;3.25;;;;;16.88;68.42;101089.88;5098241;27;64928;-59
2021/09/11 05:56:02;;;;;;;;;4.50;3.25;;;;;16.89;68.57;101095.00;5098143;27;66201;-59
2021/09/11 05:58:27;;;;;;;;;3.50;3.50;;;;;16.91;68.45;101097.50;5098967;27;45368;-60
2021/09/11 06:00:52;;;;;;;;;2.00;2.00;;;;;16.93;68.73;101103.47;5098037;27;70033;-60
2021/09/11 06:03:18;;;;;;;;;2.50;2.00;;;;;16.95;68.35;101103.28;5099055;27;45313;-60
2021/09/11 06:05:43;;;;;;;;;2.50;2.50;;;;;16.95;68.45;101106.78;5098213;27;61752;-59
2021/09/11 06:08:08;;;;;;;;;6.00;3.25;;;;;16.97;68.74;101114.63;5098859;27;46121;-60
2021/09/11 06:10:34;;;;;;;;;3.50;3.50;;;;;16.99;68.69;101118.75;5098218;27;60414;-60
2021/09/11 06:12:59;;;;;;;;;3.50;3.00;;;;;17.00;68.88;101128.38;5097993;27;63968;-59
2021/09/11 06:15:25;;;;;;;;;4.00;3.00;;;;;17.01;68.77;101121.25;5098811;27;45231;-60
2021/09/11 06:17:51;;;;;;;;;4.00;3.00;;;;;17.03;68.45;101122.75;5080022;27;46859;-60
2021/09/11 06:20:16;;;;;;;;;3.00;2.75;;;;;17.07;68.27;101128.56;5098655;27;45367;-59
2021/09/11 06:22:41;;;;;;;;;4.00;2.00;;;;;17.11;68.46;101124.59;5098549;27;45374;-60
2021/09/11 06:25:07;;;;;;;;;3.50;3.25;;;;;17.13;68.46;101135.88;5098329;27;49323;-60
2021/09/11 06:27:33;;;;;;;;;2.75;2.75;;;;;17.17;68.31;101136.38;5098506;27;45454;-60
2021/09/11 06:29:58;;;;;;;;;4.00;3.00;;;;;17.22;68.64;101135.88;5098256;27;45256;-60
2021/09/11 06:32:23;;;;;;;;;2.75;2.75;;;;;17.27;68.64;101134.38;5097713;27;60585;-60
2021/09/11 06:34:49;;;;;;;;;4.75;3.00;;;;;17.32;68.70;101136.53;5097683;27;62883;-59
2021/09/11 06:37:14;;;;;;;;;3.00;2.00;;;;;17.36;68.96;101140.50;5097564;27;69147;-59
2021/09/11 06:39:40;;;;;;;;;2.00;2.00;;;;;17.43;68.87;101138.03;5098332;27;45340;-59
2021/09/11 06:42:05;;;;;;;;;2.00;2.00;;;;;17.51;68.65;101138.00;5098387;27;45338;-59
2021/09/11 06:44:30;;;;;;;;;2.25;2.25;;;;;17.58;67.89;101133.69;5098232;27;45409;-60
2021/09/11 06:46:56;;;;;;;;;3.50;3.50;;;;;17.64;67.41;101138.34;5097662;27;52179;-60
2021/09/11 06:49:22;;;;;;;;;4.00;3.00;;;;;17.77;67.34;101135.16;5097540;27;55137;-59
2021/09/11 06:51:47;;;;;;;;;2.00;2.00;;;;;17.87;67.70;101140.31;5098047;27;45436;-60
2021/09/11 06:54:13;;;;;;;;;2.25;2.25;;;;;17.95;66.76;101142.97;5097901;27;45492;-60
2021/09/11 06:56:38;;;;;;;;;3.00;3.00;;;;;18.07;66.40;101145.25;5096794;27;73205;-60
2021/09/11 06:59:04;;;;;;;;;2.25;2.00;;;;;18.15;66.45;101152.41;5097887;27;45379;-59
2021/09/11 07:01:29;;;;;;;;;2.00;2.00;;;;;18.24;66.10;101146.88;5098022;27;45391;-59
2021/09/11 07:03:54;;;;;;;;;3.00;2.00;;;;;18.34;65.50;101143.19;5097271;27;45284;-59
2021/09/11 07:06:20;;;;;;;;;1.50;1.50;;;;;18.46;65.13;101155.13;5096608;27;70404;-60
2021/09/11 07:08:45;;;;;;;;;3.00;2.00;;;;;18.63;64.34;101149.69;5079253;27;45255;-60
2021/09/11 07:11:12;;;;;;;;;4.00;2.00;;;;;18.79;64.22;101157.59;5097685;27;45228;-59
2021/09/11 07:13:37;;;;;;;;;5.00;3.00;;;;;18.93;63.69;101152.53;5097567;27;45502;-60
2021/09/11 07:16:03;;;;;;;;;2.50;2.50;;;;;19.05;62.46;101164.47;5097054;27;45701;-59
2021/09/11 07:18:28;;;;;;;;;1.00;1.00;;;;;19.13;61.78;101160.91;5097519;27;46627;-60
2021/09/11 07:20:54;;;;;;;;;2.00;2.00;;;;;19.20;62.30;101161.88;5097262;27;49592;-60
2021/09/11 07:23:19;;;;;;;;;3.00;2.00;;;;;19.29;61.40;101167.94;5097267;27;45581;-60
2021/09/11 07:25:44;;;;;;;;;2.25;2.25;;;;;19.40;61.76;101167.53;5096162;27;71944;-59
2021/09/11 07:28:10;;;;;;;;;3.75;1.25;;;;;19.54;61.96;101165.09;5096563;27;66541;-60
2021/09/11 07:30:36;;;;;;;;;1.75;1.75;;;;;19.66;61.31;101171.63;5096897;27;54770;-60
2021/09/11 07:33:01;;;;;;;;;4.00;4.00;;;;;19.82;61.91;101164.50;5096889;27;45383;-60
2021/09/11 07:35:26;;;;;;;;;1.00;1.00;;;;;19.97;60.78;101157.38;5097127;27;45945;-59
2021/09/11 07:37:52;;;;;;;;;3.00;2.00;;;;;20.16;59.65;101163.16;5096985;27;49378;-59
2021/09/11 07:40:17;;;;;;;;;1.00;1.00;;;;;20.30;59.78;101162.31;5096611;27;62004;-60
2021/09/11 07:42:43;;;;;;;;;3.00;1.00;;;;;20.46;59.13;101165.81;5096458;27;64614;-60
2021/09/11 07:45:12;;;;;;;;;3.00;3.00;;;;;20.61;59.15;101163.09;5096720;27;45319;-59
2021/09/11 07:47:39;;;;;;;;;2.00;2.00;;;;;20.77;57.94;101172.75;5097138;27;45445;-60
2021/09/11 07:50:05;;;;;;;;;3.00;2.00;;;;;20.91;58.02;101171.09;5097028;27;45296;-60
2021/09/11 07:52:30;;;;;;;;;1.25;1.25;;;;;21.02;57.70;101164.41;5097038;27;45547;-59
2021/09/11 07:54:55;;;;;;;;;4.00;2.50;;;;;21.14;57.11;101165.56;5096205;27;68997;-60
2021/09/11 07:57:21;;;;;;;;;1.00;1.00;;;;;21.27;56.28;101164.84;5096230;27;66336;-60
2021/09/11 07:59:46;;;;;;;;;1.25;1.00;;;;;21.44;56.06;101169.94;5096805;27;50908;-60
2021/09/11 08:02:11;;;;;;;;;1.75;1.75;;;;;21.59;55.58;101169.84;5097166;27;45257;-60
2021/09/11 08:04:37;;;;;;;;;2.00;2.00;;;;;21.75;55.25;101174.91;5095928;27;66835;-60
2021/09/11 08:07:02;;;;;;;;;2.00;2.00;;;;;21.90;55.51;101171.31;5096254;27;64175;-61
2021/09/11 08:09:28;;;;;;;;;2.00;2.00;;;;;22.02;54.87;101172.44;5078335;27;55897;-60
2021/09/11 08:11:53;;;;;;;;;2.00;2.00;;;;;22.18;53.60;101179.31;5096181;27;61278;-61
2021/09/11 08:14:18;;;;;;;;;1.25;1.25;;;;;22.32;53.11;101180.19;5096187;27;71337;-61
2021/09/11 08:16:44;;;;;;;;;2.00;2.00;;;;;22.46;53.60;101186.50;5099931;27;61738;-61
2021/09/11 08:19:09;;;;;;;;;2.25;2.25;;;;;22.62;52.60;101188.00;5099780;27;63463;-61
2021/09/11 08:21:34;;;;;;;;;2.00;1.00;;;;;22.76;51.98;101196.09;5100108;27;45196;-61
2021/09/11 08:24:00;;;;;;;;;3.25;2.00;;;;;22.88;52.35;101191.75;5081549;27;59565;-61
2021/09/11 08:26:25;;;;;;;;;2.50;2.00;;;;;23.01;50.55;101200.88;5099316;27;73222;-61
2021/09/11 08:28:51;;;;;;;;;1.50;1.50;;;;;23.12;50.69;101195.72;5099839;27;56926;-61
2021/09/11 08:31:17;;;;;;;;;1.00;1.00;;;;;23.24;50.28;101197.84;5081667;27;45535;-60
2021/09/11 08:33:43;;;;;;;;;2.00;1.00;;;;;23.33;48.93;101206.50;5099869;27;48631;-62
2021/09/11 08:36:09;;;;;;;;;2.25;1.00;;;;;23.40;48.41;101202.81;5100173;27;45519;-60
2021/09/11 08:38:35;;;;;;;;;4.00;1.00;;;;;23.51;48.02;101203.25;5100231;27;45414;-61
2021/09/11 08:41:06;;;;;;;;;2.00;0.25;;;;;23.61;47.85;101213.56;5100188;27;45574;-59
2021/09/11 08:43:31;;;;;;;;;1.50;1.50;;;;;23.71;47.48;101213.97;5099705;27;46346;-61
2021/09/11 08:45:56;;;;;;;;;3.00;1.00;;;;;23.77;46.55;101221.19;5081739;27;45231;-61
2021/09/11 08:48:24;;;;;;;;;2.25;2.25;;;;;23.82;46.51;101216.03;5100118;27;45546;-61
2021/09/11 08:50:50;;;;;;;;;1.00;1.00;;;;;23.92;46.30;101212.91;5099843;27;45605;-61
2021/09/11 08:53:15;;;;;;;;;2.00;2.00;;;;;24.01;46.34;101216.22;5099529;27;49180;-61
2021/09/11 08:55:40;;;;;;;;;2.75;1.00;;;;;24.11;46.81;101219.31;5064578;27;45290;-61
2021/09/11 08:58:07;;;;;;;;;3.00;2.00;;;;;24.21;46.70;101212.69;5099345;27;53109;-61
2021/09/11 09:00:44;;;;;;;;;2.75;2.00;;;;;24.30;46.36;101216.78;5099940;27;45170;-61
2021/09/11 09:03:35;;;;;;;;;1.75;1.00;;;;;24.37;44.65;101217.59;5099729;27;46346;-62
2021/09/11 09:06:17;;;;;;;;;0.25;0.25;;;;;24.45;43.97;101211.97;5100026;27;45753;-61
2021/09/11 09:08:44;;;;;;;;;1.50;0.75;;;;;24.53;43.47;101208.25;5099864;27;45374;-61
2021/09/11 09:11:21;;;;;;;;;4.00;1.00;;;;;24.56;43.11;101204.28;5099706;27;45312;-61
2021/09/11 09:14:25;;;;;;;;;1.75;1.75;;;;;24.57;42.62;101208.63;5099350;27;45404;-60
2021/09/11 09:16:52;;;;;;;;;3.25;0.00;;;;;24.60;42.73;101216.25;5077569;27;45774;-60
2021/09/11 09:19:22;;;;;;;;;1.00;1.00;;;;;24.66;42.62;101210.03;5099714;27;45368;-60
2021/09/11 09:21:48;;;;;;;;;1.00;0.00;;;;;24.77;42.80;101205.88;5099355;27;45546;-60
2021/09/11 09:24:31;;;;;;;;;2.00;1.00;;;;;24.88;43.21;101210.56;5099561;27;45398;-61
2021/09/11 09:27:07;;;;;;;;;5.00;1.00;;;;;25.00;42.86;101216.06;5081906;27;45316;-61
2021/09/11 09:29:36;;;;;;;;;4.00;1.00;;;;;25.14;42.85;101210.63;5099632;27;45454;-61
2021/09/11 09:32:01;;;;;;;;;2.00;1.00;;;;;25.28;41.79;101205.97;5099357;27;45493;-61
2021/09/11 09:34:37;;;;;;;;;3.25;1.00;;;;;25.34;42.03;101199.72;5099387;27;45305;-61
2021/09/11 09:37:04;;;;;;;;;3.00;3.00;;;;;25.45;41.33;101212.50;5081140;27;45766;-61
2021/09/11 09:39:29;;;;;;;;;1.00;1.00;;;;;25.55;41.30;101208.50;5081215;27;45487;-61
2021/09/11 09:42:02;;;;;;;;;2.00;2.00;;;;;25.63;40.28;101205.53;5099377;27;45442;-61
2021/09/11 09:44:28;;;;;;;;;1.25;1.25;;;;;25.63;39.97;101200.16;5099106;27;47038;-61
2021/09/11 09:46:53;;;;;;;;;1.00;1.00;;;;;25.62;39.44;101196.63;5099150;27;45320;-61
2021/09/11 09:49:20;;;;;;;;;2.25;1.75;;;;;25.60;40.02;101198.72;5098354;27;63890;-60
2021/09/11 09:51:46;;;;;;;;;3.50;2.00;;;;;25.60;40.21;101198.72;5080942;27;45560;-61
2021/09/11 09:54:12;;;;;;;;;1.25;1.25;;;;;25.57;39.51;101198.34;5098560;27;46206;-60
2021/09/11 09:56:37;;;;;;;;;3.50;1.00;;;;;25.56;40.28;101197.50;5098519;27;50946;-61
2021/09/11 09:59:02;;;;;;;;;3.00;1.00;;;;;25.60;39.98;101195.22;5079916;27;63131;-61
2021/09/11 10:01:28;;;;;;;;;2.75;2.75;;;;;25.61;39.84;101205.75;5062832;27;69514;-61
2021/09/11 10:03:54;;;;;;;;;2.00;2.00;;;;;25.62;40.03;101196.63;5098693;27;45834;-61
2021/09/11 10:06:25;;;;;;;;;3.50;2.00;;;;;25.68;40.33;101186.03;5097417;27;45524;-62
2021/09/11 10:08:54;;;;;;;;;2.75;2.00;;;;;25.72;39.86;101189.91;5099000;27;45342;-61
2021/09/11 10:11:19;;;;;;;;;2.00;2.00;;;;;25.80;39.66;101192.34;5080653;27;45566;-61
2021/09/11 10:14:01;;;;;;;;;1.75;1.75;;;;;25.83;39.77;101193.75;5098607;27;45874;-60
2021/09/11 10:16:34;;;;;;;;;2.50;2.50;;;;;25.86;39.35;101191.44;5080619;27;45320;-61
2021/09/11 10:19:00;;;;;;;;;1.00;1.00;;;;;25.88;39.99;101200.13;5097892;27;45271;-61
2021/09/11 10:21:39;;;;;;;;;1.00;1.00;;;;;25.96;39.32;101195.50;5098208;27;45392;-62
2021/09/11 10:24:14;;;;;;;;;2.75;2.75;;;;;26.07;39.19;101198.28;5098455;27;45263;-61
2021/09/11 10:26:52;;;;;;;;;1.00;1.00;;;;;26.20;39.06;101196.50;5097962;27;45874;-61
2021/09/11 10:29:36;;;;;;;;;6.00;4.00;;;;;26.27;38.60;101196.44;5098422;27;45236;-62
2021/09/11 10:32:06;;;;;;;;;2.75;2.00;;;;;26.34;38.33;101202.56;5098346;27;45371;-61
2021/09/11 10:34:51;;;;;;;;;3.50;2.00;;;;;26.29;37.95;101195.13;5098363;27;46331;-60
2021/09/11 10:37:39;;;;;;;;;2.00;2.00;;;;;26.18;38.54;101201.31;5079271;27;45371;-61
2021/09/11 10:40:28;;;;;;;;;2.00;2.00;;;;;26.10;38.13;101193.47;5098550;27;45426;-61
2021/09/11 10:43:09;;;;;;;;;3.00;2.75;;;;;26.09;38.79;101198.03;5098232;27;45238;-61
2021/09/11 10:45:44;;;;;;;;;3.50;2.00;;;;;26.11;38.43;101192.44;5097952;27;46294;-61
2021/09/11 10:48:35;;;;;;;;;4.00;2.75;;;;;26.13;38.90;101185.78;5098038;27;45797;-61
2021/09/11 10:51:17;;;;;;;;;3.75;3.25;;;;;26.14;38.54;101184.75;5098228;27;45422;-62
2021/09/11 10:54:15;;;;;;;;;3.00;3.00;;;;;26.07;38.45;101175.88;5098241;27;45393;-61
2021/09/11 10:56:51;;;;;;;;;3.25;3.00;;;;;26.10;38.65;101171.94;5097920;27;45229;-61
2021/09/11 10:59:19;;;;;;;;;4.00;4.00;;;;;26.12;38.60;101173.34;5097176;27;45294;-60
2021/09/11 11:01:53;;;;;;;;;5.00;5.00;;;;;26.16;39.01;101179.16;5097886;27;45280;-61
2021/09/11 11:04:23;;;;;;;;;4.75;4.00;;;;;26.25;39.44;101176.97;5097828;27;45275;-60
2021/09/11 11:06:50;;;;;;;;;4.00;3.00;;;;;26.36;38.33;101176.22;5097641;27;46294;-61
2021/09/11 11:09:18;;;;;;;;;3.25;3.00;;;;;26.46;39.12;101184.59;5079383;27;45710;-60
2021/09/11 11:11:43;;;;;;;;;6.00;6.00;;;;;26.51;38.29;101190.09;5079649;27;45410;-60
2021/09/11 11:14:08;;;;;;;;;4.50;3.25;;;;;26.51;37.63;101192.00;5061527;27;70080;-61
2021/09/11 11:16:50;;;;;;;;;7.00;5.25;;;;;26.48;37.83;101177.09;5078602;27;68304;-60
2021/09/11 11:19:40;;;;;;;;;3.00;3.00;;;;;26.43;37.85;101187.75;5097777;27;45704;-60
2021/09/11 11:22:07;;;;;;;;;5.00;3.00;;;;;26.36;38.35;101184.31;5096503;27;45340;-61
2021/09/11 11:24:36;;;;;;;;;3.00;2.00;;;;;26.37;38.20;101185.94;5097460;27;45224;-60